createdAt,value
2019-05-15T00:00:08.720Z,5.62
2019-05-15T00:02:34.253Z,5.62
2019-05-15T00:05:00.185Z,5.62
2019-05-15T00:07:26.239Z,5.69
2019-05-15T00:09:52.176Z,5.44
2019-05-15T00:12:18.931Z,5.62
2019-05-15T00:14:48.440Z,5.62
2019-05-15T00:17:14.631Z,5.56
2019-05-15T00:19:40.471Z,5.44
2019-05-15T00:22:08.528Z,5.62
2019-05-15T00:24:34.047Z,5.56
2019-05-15T00:26:59.883Z,5.44
2019-05-15T00:29:25.743Z,5.31
2019-05-15T00:31:51.588Z,5.50
2019-05-15T00:34:18.391Z,5.50
2019-05-15T00:36:44.499Z,5.69
2019-05-15T00:39:10.435Z,5.31
2019-05-15T00:41:49.911Z,5.37
2019-05-15T00:44:04.043Z,5.37
2019-05-15T00:46:30.072Z,5.19
2019-05-15T00:48:55.953Z,5.31
2019-05-15T00:51:21.809Z,5.06
2019-05-15T00:53:48.348Z,5.44
2019-05-15T00:56:14.365Z,5.31
2019-05-15T00:58:41.636Z,5.12
2019-05-15T01:01:08.329Z,5.12
2019-05-15T01:03:34.309Z,5.44
2019-05-15T01:06:00.143Z,5.19
2019-05-15T01:08:28.294Z,4.94
2019-05-15T01:10:53.792Z,5.12
2019-05-15T01:13:19.629Z,5.12
2019-05-15T01:15:45.463Z,4.94
2019-05-15T01:18:11.337Z,4.94
2019-05-15T01:20:39.102Z,5.12
2019-05-15T01:23:04.956Z,4.94
2019-05-15T01:25:30.846Z,4.69
2019-05-15T01:27:58.365Z,4.81
2019-05-15T01:30:24.367Z,4.69
2019-05-15T01:32:50.246Z,4.94
2019-05-15T01:35:17.963Z,4.62
2019-05-15T01:37:43.852Z,4.75
2019-05-15T01:40:09.932Z,4.69
2019-05-15T01:42:38.654Z,4.81
2019-05-15T01:45:08.377Z,4.69
2019-05-15T01:47:33.723Z,5.00
2019-05-15T01:49:59.572Z,5.00
2019-05-15T01:52:27.782Z,4.87
2019-05-15T01:54:53.152Z,5.00
2019-05-15T01:57:19.000Z,4.62
2019-05-15T01:59:56.561Z,4.94
2019-05-15T02:02:12.576Z,4.75
2019-05-15T02:04:39.326Z,4.56
2019-05-15T02:07:05.480Z,4.44
2019-05-15T02:09:31.418Z,4.31
2019-05-15T02:11:58.215Z,4.75
2019-05-15T02:14:24.206Z,4.44
2019-05-15T02:16:50.073Z,4.62
2019-05-15T02:19:15.993Z,4.06
2019-05-15T02:21:43.926Z,4.12
2019-05-15T02:24:11.140Z,4.31
2019-05-15T02:26:38.926Z,4.56
2019-05-15T02:29:04.710Z,4.31
2019-05-15T02:31:30.576Z,4.12
2019-05-15T02:33:59.046Z,4.44
2019-05-15T02:36:24.237Z,4.12
2019-05-15T02:38:50.117Z,4.00
2019-05-15T02:41:19.289Z,4.12
2019-05-15T02:43:43.790Z,4.37
2019-05-15T02:46:10.295Z,4.06
2019-05-15T02:48:36.298Z,3.81
2019-05-15T02:51:02.539Z,3.81
2019-05-15T02:53:29.941Z,3.94
2019-05-15T02:55:56.131Z,3.94
2019-05-15T02:58:24.635Z,3.75
2019-05-15T03:00:53.325Z,3.75
2019-05-15T03:03:20.656Z,3.62
2019-05-15T03:05:45.936Z,3.69
2019-05-15T03:08:11.813Z,3.87
2019-05-15T03:10:40.539Z,3.81
2019-05-15T03:13:09.372Z,3.87
2019-05-15T03:15:33.617Z,3.62
2019-05-15T03:18:00.368Z,3.87
2019-05-15T03:20:29.495Z,4.31
2019-05-15T03:22:54.235Z,3.87
2019-05-15T03:25:20.080Z,4.12
2019-05-15T03:27:46.007Z,4.00
2019-05-15T03:30:14.355Z,4.25
2019-05-15T03:32:46.526Z,4.37
2019-05-15T03:35:13.182Z,4.37
2019-05-15T03:37:35.243Z,4.37
2019-05-15T03:40:01.741Z,4.31
2019-05-15T03:42:29.351Z,4.19
2019-05-15T03:44:59.629Z,4.50
2019-05-15T03:47:25.070Z,4.44
2019-05-15T03:49:51.001Z,4.44
2019-05-15T03:52:19.168Z,4.62
2019-05-15T03:54:44.694Z,4.62
2019-05-15T03:57:10.941Z,4.56
2019-05-15T03:59:39.699Z,4.44
2019-05-15T04:02:04.622Z,4.50
2019-05-15T04:04:30.560Z,4.69
2019-05-15T04:06:59.214Z,4.75
2019-05-15T04:09:24.124Z,4.75
2019-05-15T04:11:50.104Z,4.25
2019-05-15T04:14:19.153Z,4.81
2019-05-15T04:16:43.719Z,4.56
2019-05-15T04:19:10.055Z,4.37
2019-05-15T04:21:41.191Z,4.25
2019-05-15T04:24:04.052Z,4.44
2019-05-15T04:26:30.472Z,4.31
2019-05-15T04:28:59.877Z,4.37
2019-05-15T04:31:24.132Z,4.50
2019-05-15T04:33:50.084Z,4.50
2019-05-15T04:36:18.896Z,4.69
2019-05-15T04:38:43.775Z,4.69
2019-05-15T04:41:10.139Z,4.62
2019-05-15T04:43:41.480Z,4.81
2019-05-15T04:46:03.940Z,4.87
2019-05-15T04:48:29.897Z,5.00
2019-05-15T04:50:58.699Z,4.87
2019-05-15T04:53:23.460Z,4.94
2019-05-15T04:55:49.597Z,5.12
2019-05-15T04:58:15.453Z,5.06
2019-05-15T05:00:49.525Z,5.06
2019-05-15T05:03:14.707Z,5.31
2019-05-15T05:05:40.668Z,5.12
2019-05-15T05:08:09.238Z,4.94
2019-05-15T05:10:34.312Z,5.00
2019-05-15T05:13:00.173Z,5.56
2019-05-15T05:15:26.116Z,5.37
2019-05-15T05:17:52.074Z,5.31
2019-05-15T05:20:18.001Z,5.37
2019-05-15T05:22:43.924Z,5.31
2019-05-15T05:25:09.966Z,5.19
2019-05-15T05:27:38.027Z,5.31
2019-05-15T05:30:04.659Z,5.25
2019-05-15T05:32:34.798Z,5.31
2019-05-15T05:34:58.927Z,5.37
2019-05-15T05:37:24.911Z,5.37
2019-05-15T05:39:50.783Z,5.37
2019-05-15T05:42:18.478Z,5.56
2019-05-15T05:44:48.736Z,5.37
2019-05-15T05:47:14.467Z,5.81
2019-05-15T05:49:40.367Z,6.00
2019-05-15T05:52:08.264Z,6.19
2019-05-15T05:54:33.935Z,6.25
2019-05-15T05:56:59.927Z,6.12
2019-05-15T05:59:28.252Z,6.31
2019-05-15T06:01:53.541Z,6.37
2019-05-15T06:04:19.473Z,6.12
2019-05-15T06:06:45.310Z,6.31
2019-05-15T06:09:11.158Z,6.06
2019-05-15T06:11:38.062Z,6.19
2019-05-15T06:14:04.081Z,6.31
2019-05-15T06:16:29.936Z,6.31
2019-05-15T06:18:58.461Z,6.31
2019-05-15T06:21:25.055Z,6.31
2019-05-15T06:23:55.258Z,6.31
2019-05-15T06:26:19.700Z,6.44
2019-05-15T06:28:48.937Z,6.69
2019-05-15T06:31:15.132Z,6.56
2019-05-15T06:33:41.054Z,6.75
2019-05-15T06:36:08.995Z,6.94
2019-05-15T06:38:34.848Z,7.12
2019-05-15T06:41:05.423Z,7.31
2019-05-15T06:43:31.342Z,7.56
2019-05-15T06:45:58.465Z,7.62
2019-05-15T06:48:24.466Z,7.75
2019-05-15T06:50:50.324Z,8.19
2019-05-15T06:53:18.789Z,8.25
2019-05-15T06:55:45.145Z,8.13
2019-05-15T06:58:12.072Z,8.44
2019-05-15T07:00:39.104Z,8.38
2019-05-15T07:03:16.906Z,8.56
2019-05-15T07:05:34.030Z,8.69
2019-05-15T07:08:00.148Z,8.63
2019-05-15T07:10:28.644Z,8.81
2019-05-15T07:12:54.143Z,9.13
2019-05-15T07:15:20.932Z,8.94
2019-05-15T07:17:48.391Z,8.88
2019-05-15T07:20:18.551Z,9.06
2019-05-15T07:22:52.047Z,9.38
2019-05-15T07:25:18.897Z,9.44
2019-05-15T07:27:48.039Z,9.56
2019-05-15T07:30:15.389Z,9.50
2019-05-15T07:32:41.423Z,9.50
2019-05-15T07:35:08.791Z,9.69
2019-05-15T07:37:34.636Z,9.69
2019-05-15T07:40:00.504Z,9.81
2019-05-15T07:42:28.887Z,9.88
2019-05-15T07:44:54.179Z,9.81
2019-05-15T07:47:20.048Z,9.88
2019-05-15T07:49:49.011Z,9.94
2019-05-15T07:52:19.169Z,10.13
2019-05-15T07:54:44.690Z,10.13
2019-05-15T07:57:10.621Z,10.13
2019-05-15T07:59:38.592Z,10.13
2019-05-15T08:02:04.324Z,10.25
2019-05-15T08:04:32.940Z,10.25
2019-05-15T08:06:59.080Z,10.25
2019-05-15T08:09:25.313Z,10.25
2019-05-15T08:11:52.431Z,10.31
2019-05-15T08:14:20.437Z,10.31
2019-05-15T08:16:48.552Z,10.44
2019-05-15T08:19:14.127Z,10.44
2019-05-15T08:21:40.041Z,10.56
2019-05-15T08:24:08.304Z,10.56
2019-05-15T08:26:33.700Z,10.63
2019-05-15T08:28:59.545Z,10.63
2019-05-15T08:31:25.485Z,10.88
2019-05-15T08:33:51.335Z,11.19
2019-05-15T08:36:18.593Z,11.12
2019-05-15T08:38:44.733Z,11.06
2019-05-15T08:41:11.687Z,11.25
2019-05-15T08:43:38.270Z,11.12
2019-05-15T08:46:04.326Z,11.38
2019-05-15T08:48:32.752Z,11.19
2019-05-15T08:50:58.069Z,11.56
2019-05-15T08:53:24.004Z,11.25
2019-05-15T08:55:49.962Z,11.31
2019-05-15T08:58:19.644Z,11.44
2019-05-15T09:00:44.187Z,11.44
2019-05-15T09:03:10.332Z,11.31
2019-05-15T09:05:38.663Z,11.25
2019-05-15T09:08:04.131Z,11.25
2019-05-15T09:10:29.947Z,11.50
2019-05-15T09:12:58.507Z,11.44
2019-05-15T09:15:25.784Z,11.19
2019-05-15T09:18:06.674Z,11.63
2019-05-15T09:20:19.698Z,11.50
2019-05-15T09:22:45.647Z,11.38
2019-05-15T09:25:11.900Z,11.69
2019-05-15T09:27:38.376Z,11.50
2019-05-15T09:30:08.892Z,11.75
2019-05-15T09:32:34.810Z,11.50
2019-05-15T09:35:08.299Z,11.94
2019-05-15T09:37:35.275Z,11.81
2019-05-15T09:40:01.483Z,11.81
2019-05-15T09:42:28.655Z,12.06
2019-05-15T09:44:54.666Z,12.00
2019-05-15T09:47:21.236Z,12.00
2019-05-15T09:49:48.441Z,12.19
2019-05-15T09:52:14.540Z,12.19
2019-05-15T09:54:40.425Z,12.31
2019-05-15T09:57:10.050Z,12.44
2019-05-15T09:59:34.132Z,12.56
2019-05-15T10:02:00.019Z,12.50
2019-05-15T10:04:28.479Z,12.44
2019-05-15T10:06:53.711Z,12.44
2019-05-15T10:09:19.589Z,12.69
2019-05-15T10:11:45.518Z,12.50
2019-05-15T10:14:11.427Z,12.37
2019-05-15T10:16:37.292Z,12.25
2019-05-15T10:19:03.214Z,12.44
2019-05-15T10:21:32.420Z,12.50
2019-05-15T10:23:59.041Z,12.56
2019-05-15T10:26:24.644Z,12.56
2019-05-15T10:28:50.509Z,12.44
2019-05-15T10:31:16.341Z,12.31
2019-05-15T10:33:42.212Z,12.50
2019-05-15T10:36:08.439Z,12.13
2019-05-15T10:38:34.494Z,12.69
2019-05-15T10:41:08.935Z,13.06
2019-05-15T10:43:30.165Z,13.06
2019-05-15T10:45:58.568Z,13.19
2019-05-15T10:48:23.877Z,12.81
2019-05-15T10:50:49.717Z,13.25
2019-05-15T10:53:18.485Z,13.75
2019-05-15T10:55:43.952Z,13.06
2019-05-15T10:58:14.097Z,13.31
2019-05-15T11:00:37.666Z,13.38
2019-05-15T11:03:03.916Z,12.94
2019-05-15T11:05:44.651Z,12.63
2019-05-15T11:07:59.426Z,12.75
2019-05-15T11:10:25.286Z,12.75
2019-05-15T11:12:51.215Z,13.06
2019-05-15T11:15:18.691Z,12.63
2019-05-15T11:17:44.880Z,12.50
2019-05-15T11:20:12.294Z,12.69
2019-05-15T11:22:39.090Z,12.88
2019-05-15T11:25:09.368Z,12.94
2019-05-15T11:27:34.074Z,12.81
2019-05-15T11:30:00.130Z,12.81
2019-05-15T11:32:26.063Z,13.06
2019-05-15T11:34:54.516Z,13.38
2019-05-15T11:37:20.383Z,13.19
2019-05-15T11:39:47.407Z,13.00
2019-05-15T11:42:13.419Z,12.75
2019-05-15T11:44:41.980Z,12.75
2019-05-15T11:47:08.162Z,12.63
2019-05-15T11:49:34.106Z,13.06
2019-05-15T11:52:00.637Z,13.38
2019-05-15T11:54:28.268Z,13.44
2019-05-15T11:56:54.468Z,13.19
2019-05-15T11:59:20.352Z,13.44
2019-05-15T12:01:48.730Z,13.75
2019-05-15T12:04:26.723Z,13.81
2019-05-15T12:06:42.018Z,13.62
2019-05-15T12:09:09.096Z,13.62
2019-05-15T12:11:37.328Z,13.19
2019-05-15T12:14:03.305Z,13.13
2019-05-15T12:16:29.214Z,13.06
2019-05-15T12:19:08.905Z,12.81
2019-05-15T12:21:31.919Z,12.94
2019-05-15T12:23:59.061Z,13.06
2019-05-15T12:26:25.184Z,13.56
2019-05-15T12:28:54.078Z,13.38
2019-05-15T12:31:24.551Z,13.56
2019-05-15T12:33:48.932Z,13.44
2019-05-15T12:38:43.323Z,13.56
2019-05-15T13:01:14.667Z,13.50
2019-05-15T13:03:32.871Z,13.75
2019-05-15T13:05:58.808Z,14.06
2019-05-15T13:08:24.652Z,13.75
2019-05-15T13:10:51.867Z,14.06
2019-05-15T13:13:18.723Z,13.13
2019-05-15T13:15:44.763Z,13.31
2019-05-15T13:18:14.638Z,13.25
2019-05-15T13:20:39.683Z,13.06
2019-05-15T13:23:07.181Z,13.06
2019-05-15T13:25:33.047Z,12.94
2019-05-15T13:27:58.948Z,13.00
2019-05-15T13:30:25.082Z,12.37
2019-05-15T13:32:51.017Z,12.44
2019-05-15T13:35:18.406Z,12.25
2019-05-15T13:37:44.491Z,12.31
2019-05-15T13:40:12.079Z,12.13
2019-05-15T13:42:38.978Z,11.94
2019-05-15T13:45:12.106Z,11.94
2019-05-15T13:47:34.123Z,12.00
2019-05-15T13:50:00.685Z,12.06
2019-05-15T13:52:30.523Z,12.19
2019-05-15T13:54:56.455Z,12.44
2019-05-15T13:57:22.357Z,12.25
2019-05-15T13:59:50.239Z,12.19
2019-05-15T14:02:18.560Z,12.06
2019-05-15T14:04:44.933Z,12.31
2019-05-15T14:07:12.707Z,11.94
2019-05-15T14:09:44.237Z,11.75
2019-05-15T14:12:11.685Z,11.69
2019-05-15T14:14:34.088Z,11.63
2019-05-15T14:17:00.096Z,11.75
2019-05-15T14:19:27.910Z,11.44
2019-05-15T14:21:53.668Z,11.63
2019-05-15T14:24:19.715Z,12.00
2019-05-15T14:26:48.329Z,11.75
2019-05-15T14:29:13.407Z,11.94
2019-05-15T14:31:39.664Z,12.13
2019-05-15T14:34:08.779Z,12.19
2019-05-15T14:36:34.848Z,12.81
2019-05-15T14:39:20.762Z,13.31
2019-05-15T14:41:39.508Z,12.44
2019-05-15T14:44:14.330Z,12.81
2019-05-15T14:49:22.169Z,12.63
2019-05-15T14:51:48.484Z,12.69
2019-05-15T14:54:18.328Z,12.75
2019-05-15T14:56:44.093Z,13.00
2019-05-15T14:59:24.396Z,12.81
2019-05-15T15:01:50.287Z,12.75
2019-05-15T15:04:18.448Z,12.69
2019-05-15T15:06:44.210Z,12.56
2019-05-15T15:09:11.589Z,12.63
2019-05-15T15:11:38.585Z,12.56
2019-05-15T15:14:18.092Z,12.44
2019-05-15T15:16:44.052Z,12.44
2019-05-15T15:19:10.198Z,12.88
2019-05-15T15:21:38.339Z,12.88
2019-05-15T15:24:08.362Z,12.94
2019-05-15T15:26:33.858Z,12.69
2019-05-15T15:28:59.769Z,12.50
2019-05-15T15:31:25.673Z,12.56
2019-05-15T15:33:51.632Z,12.63
2019-05-15T15:36:17.504Z,12.56
2019-05-15T15:38:44.213Z,12.88
2019-05-15T15:41:10.623Z,12.88
2019-05-15T15:43:38.596Z,13.00
2019-05-15T15:46:04.232Z,12.94
2019-05-15T15:48:30.232Z,12.75
2019-05-15T15:50:58.676Z,12.44
2019-05-15T15:53:24.778Z,12.44
2019-05-15T15:55:50.988Z,12.69
2019-05-15T15:58:19.978Z,12.88
2019-05-15T16:00:45.841Z,12.94
2019-05-15T16:03:11.796Z,12.81
2019-05-15T16:05:38.468Z,12.63
2019-05-15T16:08:04.716Z,13.00
2019-05-15T16:10:30.749Z,12.81
2019-05-15T16:12:58.238Z,12.75
2019-05-15T16:15:24.334Z,13.00
2019-05-15T16:17:50.490Z,12.56
2019-05-15T16:20:18.940Z,12.81
2019-05-15T16:22:45.054Z,12.63
2019-05-15T16:25:11.084Z,12.75
2019-05-15T16:27:38.256Z,12.37
2019-05-15T16:30:05.274Z,12.19
2019-05-15T16:32:31.202Z,11.94
2019-05-15T16:34:58.656Z,11.63
2019-05-15T16:37:24.883Z,11.75
2019-05-15T16:39:50.723Z,11.63
2019-05-15T16:42:18.033Z,11.56
2019-05-15T16:44:44.124Z,11.44
2019-05-15T16:47:09.977Z,11.81
2019-05-15T16:49:35.836Z,11.88
2019-05-15T16:52:01.680Z,11.50
2019-05-15T16:54:28.903Z,11.44
2019-05-15T16:56:55.068Z,11.50
2019-05-15T16:59:21.103Z,11.38
2019-05-15T17:01:48.978Z,11.12
2019-05-15T17:04:14.719Z,11.38
2019-05-15T17:06:40.666Z,11.44
2019-05-15T17:09:19.935Z,11.56
2019-05-15T17:11:35.174Z,11.50
2019-05-15T17:14:01.121Z,11.19
2019-05-15T17:16:26.973Z,11.25
2019-05-15T17:18:53.582Z,11.94
2019-05-15T17:21:19.496Z,11.38
2019-05-15T17:23:49.060Z,11.25
2019-05-15T17:26:15.002Z,11.25
2019-05-15T17:28:43.477Z,10.88
2019-05-15T17:31:11.272Z,11.12
2019-05-15T17:33:39.439Z,11.69
2019-05-15T17:36:05.376Z,11.19
2019-05-15T17:38:31.647Z,11.75
2019-05-15T17:40:57.902Z,11.12
2019-05-15T17:43:23.992Z,11.06
2019-05-15T17:45:50.289Z,11.44
2019-05-15T17:48:16.230Z,10.56
2019-05-15T17:50:48.390Z,10.44
2019-05-15T17:53:11.167Z,10.56
2019-05-15T17:55:41.043Z,10.25
2019-05-15T17:58:08.716Z,9.88
2019-05-15T18:00:34.898Z,10.31
2019-05-15T18:03:00.857Z,10.25
2019-05-15T18:05:28.319Z,10.00
2019-05-15T18:07:54.389Z,10.31
2019-05-15T18:10:20.372Z,10.56
2019-05-15T18:12:48.608Z,10.31
2019-05-15T18:15:14.281Z,10.25
2019-05-15T18:17:41.005Z,10.25
2019-05-15T18:20:09.880Z,10.25
2019-05-15T18:22:37.911Z,10.56
2019-05-15T18:25:05.301Z,10.44
2019-05-15T18:27:31.143Z,10.44
2019-05-15T18:29:58.417Z,10.19
2019-05-15T18:32:24.414Z,10.00
2019-05-15T18:34:50.401Z,10.50
2019-05-15T18:37:16.363Z,10.38
2019-05-15T18:39:42.381Z,10.25
2019-05-15T18:42:08.825Z,10.25
2019-05-15T18:44:34.777Z,10.00
2019-05-15T18:47:00.799Z,10.19
2019-05-15T18:49:28.522Z,10.19
2019-05-15T18:51:54.477Z,10.25
2019-05-15T18:54:20.449Z,10.19
2019-05-15T18:56:48.817Z,9.75
2019-05-15T18:59:14.395Z,9.75
2019-05-15T19:01:40.595Z,9.81
2019-05-15T19:04:08.612Z,9.69
2019-05-15T19:06:34.295Z,9.75
2019-05-15T19:09:00.189Z,9.63
2019-05-15T19:11:28.668Z,9.75
2019-05-15T19:13:53.937Z,9.69
2019-05-15T19:16:19.782Z,9.56
2019-05-15T19:18:47.775Z,9.56
2019-05-15T19:21:13.402Z,9.56
2019-05-15T19:23:40.453Z,9.44
2019-05-15T19:26:08.334Z,9.56
2019-05-15T19:28:34.285Z,9.56
2019-05-15T19:31:00.247Z,9.50
2019-05-15T19:33:34.367Z,9.75
2019-05-15T19:35:53.947Z,9.56
2019-05-15T19:38:19.906Z,9.50
2019-05-15T19:40:47.789Z,9.50
2019-05-15T19:43:15.049Z,9.31
2019-05-15T19:45:41.667Z,9.38
2019-05-15T19:48:09.070Z,9.50
2019-05-15T19:50:35.010Z,9.56
2019-05-15T19:53:00.914Z,9.56
2019-05-15T19:55:28.500Z,9.56
2019-05-15T19:57:54.350Z,9.56
2019-05-15T20:00:20.307Z,9.69
2019-05-15T20:02:48.456Z,9.44
2019-05-15T20:05:18.378Z,9.44
2019-05-15T20:07:47.865Z,9.56
2019-05-15T20:10:13.800Z,9.56
2019-05-15T20:12:39.676Z,9.44
2019-05-15T20:15:20.897Z,9.44
2019-05-15T20:17:35.767Z,9.44
2019-05-15T20:20:02.771Z,9.31
2019-05-15T20:22:28.714Z,9.44
2019-05-15T20:24:54.632Z,9.56
2019-05-15T20:27:20.772Z,9.50
2019-05-15T20:29:48.614Z,9.50
2019-05-15T20:32:14.492Z,9.50
2019-05-15T20:34:40.356Z,9.56
2019-05-15T20:37:06.517Z,9.38
2019-05-15T20:39:33.572Z,9.31
2019-05-15T20:41:59.550Z,9.44
2019-05-15T20:44:25.442Z,9.38
2019-05-15T20:46:51.495Z,9.50
2019-05-15T20:49:17.917Z,9.44
2019-05-15T20:51:48.780Z,9.50
2019-05-15T20:54:13.740Z,9.38
2019-05-15T20:56:39.699Z,9.38
2019-05-15T20:59:05.543Z,9.44
2019-05-15T21:01:31.440Z,9.50
2019-05-15T21:03:59.571Z,9.56
2019-05-15T21:06:25.116Z,9.69
2019-05-15T21:08:50.948Z,9.56
2019-05-15T21:11:18.029Z,9.44
2019-05-15T21:13:44.796Z,9.56
2019-05-15T21:16:10.654Z,9.44
2019-05-15T21:18:38.022Z,9.31
2019-05-15T21:21:04.048Z,9.25
2019-05-15T21:23:29.866Z,9.38
2019-05-15T21:25:55.737Z,9.56
2019-05-15T21:28:21.707Z,9.69
2019-05-15T21:30:49.282Z,9.38
2019-05-15T21:33:17.614Z,9.44
2019-05-15T21:35:43.642Z,9.31
2019-05-15T21:38:09.685Z,9.38
2019-05-15T21:40:35.527Z,9.50
2019-05-15T21:43:01.386Z,9.44
2019-05-15T21:45:28.930Z,9.38
2019-05-15T21:47:55.060Z,9.31
2019-05-15T21:50:20.931Z,9.38
2019-05-15T21:52:49.075Z,9.44
2019-05-15T21:55:14.723Z,9.25
2019-05-15T21:57:43.388Z,9.44
2019-05-15T22:00:38.209Z,9.44
2019-05-15T22:03:04.106Z,9.31
2019-05-15T22:05:30.039Z,9.38
2019-05-15T22:07:58.500Z,9.31
2019-05-15T22:10:23.756Z,9.44
2019-05-15T22:12:49.635Z,9.31
2019-05-15T22:15:18.446Z,9.38
2019-05-15T22:17:43.682Z,9.31
2019-05-15T22:20:09.580Z,9.38
2019-05-15T22:22:35.570Z,9.19
2019-05-15T22:25:01.527Z,9.38
2019-05-15T22:27:29.012Z,9.38
2019-05-15T22:29:55.123Z,9.25
2019-05-15T22:32:20.997Z,9.31
2019-05-15T22:34:48.129Z,9.19
2019-05-15T22:37:14.598Z,9.25
2019-05-15T22:39:40.513Z,9.19
2019-05-15T22:42:08.274Z,9.31
2019-05-15T22:44:38.375Z,9.25
2019-05-15T22:47:03.823Z,9.25
2019-05-15T22:49:29.909Z,9.31
2019-05-15T22:51:58.022Z,9.25
2019-05-15T22:54:23.631Z,9.25
2019-05-15T22:56:49.549Z,9.25
2019-05-15T22:59:15.777Z,9.25
2019-05-15T23:01:41.659Z,9.19
2019-05-15T23:04:08.965Z,9.19
2019-05-15T23:06:35.036Z,9.00
2019-05-15T23:09:00.886Z,8.94
2019-05-15T23:11:26.725Z,9.13
2019-05-15T23:13:52.693Z,8.88
2019-05-15T23:16:18.614Z,8.69
2019-05-15T23:18:44.575Z,8.56
2019-05-15T23:21:10.515Z,8.63
2019-05-15T23:23:38.045Z,8.81
2019-05-15T23:26:04.017Z,8.63
2019-05-15T23:28:30.223Z,8.44
2019-05-15T23:30:57.672Z,8.63
2019-05-15T23:33:23.691Z,8.50
2019-05-15T23:35:49.535Z,8.50
2019-05-15T23:38:15.379Z,8.56
2019-05-15T23:40:41.215Z,8.56
2019-05-15T23:43:08.843Z,8.63
2019-05-15T23:45:34.811Z,8.38
2019-05-15T23:48:00.963Z,8.38
2019-05-15T23:50:28.838Z,8.31
2019-05-15T23:52:54.523Z,8.38
2019-05-15T23:55:20.383Z,8.38
2019-05-15T23:57:48.287Z,8.56
